createdAt,value
2023-01-21T00:01:11.590Z,0.42
2023-01-21T00:03:59.960Z,0.38
2023-01-21T00:06:49.142Z,0.46
2023-01-21T00:09:37.075Z,0.43
2023-01-21T00:12:25.055Z,0.46
2023-01-21T00:15:12.986Z,0.57
2023-01-21T00:18:02.240Z,0.46
2023-01-21T00:20:50.172Z,0.51
2023-01-21T00:23:38.128Z,0.59
2023-01-21T00:26:26.105Z,0.59
2023-01-21T00:29:14.358Z,0.58
2023-01-21T00:32:02.284Z,0.70
2023-01-21T00:34:51.582Z,0.66
2023-01-21T00:37:39.640Z,0.68
2023-01-21T00:40:27.710Z,0.67
2023-01-21T00:43:15.647Z,0.62
2023-01-21T00:46:03.967Z,0.66
2023-01-21T00:48:51.966Z,0.67
2023-01-21T00:51:41.260Z,0.66
2023-01-21T00:54:31.182Z,0.73
2023-01-21T00:57:19.133Z,0.70
2023-01-21T01:00:11.042Z,0.72
2023-01-21T01:02:59.026Z,0.77
2023-01-21T01:05:46.930Z,0.76
2023-01-21T01:08:36.287Z,0.73
2023-01-21T01:11:25.703Z,0.74
2023-01-21T01:14:13.629Z,0.80
2023-01-21T01:17:01.553Z,0.85
2023-01-21T01:19:49.457Z,0.88
2023-01-21T01:22:37.380Z,0.84
2023-01-21T01:25:26.650Z,0.85
2023-01-21T01:28:14.593Z,0.79
2023-01-21T01:31:04.869Z,0.83
2023-01-21T01:33:52.825Z,0.80
2023-01-21T01:36:40.724Z,0.74
2023-01-21T01:39:28.662Z,0.77
2023-01-21T01:42:17.998Z,0.75
2023-01-21T01:45:08.379Z,0.65
2023-01-21T01:48:02.400Z,0.70
2023-01-21T01:50:50.655Z,0.64
2023-01-21T01:53:41.853Z,0.60
2023-01-21T01:56:31.353Z,0.50
2023-01-21T01:59:21.057Z,0.47
2023-01-21T02:02:12.345Z,0.49
2023-01-21T02:05:05.624Z,0.47
2023-01-21T02:07:53.772Z,0.44
2023-01-21T02:10:41.684Z,0.40
2023-01-21T02:13:33.188Z,0.40
2023-01-21T02:16:37.413Z,0.22
2023-01-21T02:19:50.786Z,0.16
2023-01-21T02:22:49.276Z,0.07
2023-01-21T02:26:10.578Z,0.01
2023-01-21T02:29:21.559Z,0.07
2023-01-21T02:32:38.873Z,0.09
2023-01-21T02:35:37.741Z,-0.33
2023-01-21T02:38:31.082Z,-0.21
2023-01-21T02:41:30.628Z,-0.37
2023-01-21T02:44:26.280Z,-0.48
2023-01-21T02:47:23.718Z,-0.53
2023-01-21T02:50:18.787Z,-0.54
2023-01-21T02:53:08.264Z,-0.51
2023-01-21T02:55:58.498Z,-0.56
2023-01-21T02:58:48.916Z,-0.55
2023-01-21T03:01:51.719Z,-0.56
2023-01-21T03:04:52.990Z,-0.57
2023-01-21T03:07:47.663Z,-0.56
2023-01-21T03:10:42.799Z,-0.60
2023-01-21T03:13:53.062Z,-0.74
2023-01-21T03:16:57.940Z,-0.53
2023-01-21T03:19:53.396Z,-0.58
2023-01-21T03:22:42.805Z,-0.52
2023-01-21T03:25:34.192Z,-0.81
2023-01-21T03:28:27.295Z,-0.51
2023-01-21T03:32:05.131Z,-0.55
2023-01-21T03:34:55.717Z,-0.46
2023-01-21T03:37:49.690Z,-0.46
2023-01-21T03:40:41.648Z,-0.52
2023-01-21T03:43:31.094Z,-0.44
2023-01-21T03:46:25.556Z,-0.51
2023-01-21T03:49:19.105Z,-0.41
2023-01-21T03:52:09.065Z,-0.42
2023-01-21T03:54:57.559Z,-0.65
2023-01-21T03:57:45.802Z,-0.44
2023-01-21T04:00:35.072Z,-0.36
2023-01-21T04:03:23.745Z,-0.50
2023-01-21T04:06:14.680Z,-0.63
2023-01-21T04:09:02.608Z,-0.54
2023-01-21T04:11:50.534Z,-0.57
2023-01-21T04:14:38.719Z,-0.69
2023-01-21T04:17:28.719Z,-0.55
2023-01-21T04:20:17.071Z,-0.63
2023-01-21T04:23:05.174Z,-0.80
2023-01-21T04:25:53.372Z,-0.86
2023-01-21T04:28:42.048Z,-1.07
2023-01-21T04:31:29.986Z,-1.26
2023-01-21T04:34:19.284Z,-1.48
2023-01-21T04:37:07.570Z,-1.53
2023-01-21T04:39:55.472Z,-1.52
2023-01-21T04:42:43.874Z,-1.74
2023-01-21T04:45:31.819Z,-1.61
2023-01-21T04:48:19.839Z,-1.77
2023-01-21T04:51:09.202Z,-1.81
2023-01-21T04:53:57.197Z,-1.73
2023-01-21T04:56:45.232Z,-1.94
2023-01-21T04:59:33.131Z,-1.93
2023-01-21T05:02:21.118Z,-2.03
2023-01-21T05:05:09.399Z,-2.13
2023-01-21T05:07:58.705Z,-2.14
2023-01-21T05:10:46.683Z,-2.12
2023-01-21T05:13:34.591Z,-2.13
2023-01-21T05:16:23.129Z,-2.17
2023-01-21T05:19:11.880Z,-2.18
2023-01-21T05:21:59.785Z,-2.33
2023-01-21T05:24:49.057Z,-2.23
2023-01-21T05:27:36.956Z,-2.27
2023-01-21T05:30:24.886Z,-2.31
2023-01-21T05:33:12.945Z,-2.26
2023-01-21T05:36:02.651Z,-2.33
2023-01-21T05:38:50.869Z,-2.47
2023-01-21T05:41:40.117Z,-2.34
2023-01-21T05:44:28.083Z,-2.30
2023-01-21T05:47:16.005Z,-2.35
2023-01-21T05:50:04.308Z,-2.32
2023-01-21T05:52:52.518Z,-2.39
2023-01-21T05:55:40.769Z,-2.39
2023-01-21T05:58:30.460Z,-2.63
2023-01-21T06:01:18.351Z,-2.57
2023-01-21T06:04:06.382Z,-2.66
2023-01-21T06:06:54.276Z,-2.77
2023-01-21T06:09:42.225Z,-2.71
2023-01-21T06:12:30.186Z,-2.72
2023-01-21T06:15:19.821Z,-2.78
2023-01-21T06:18:07.906Z,-2.67
2023-01-21T06:20:55.824Z,-2.78
2023-01-21T06:23:43.741Z,-2.60
2023-01-21T06:26:31.681Z,-2.60
2023-01-21T06:29:19.716Z,-2.81
2023-01-21T06:32:09.185Z,-3.20
2023-01-21T06:34:57.212Z,-3.28
2023-01-21T06:37:45.941Z,-3.34
2023-01-21T06:40:34.235Z,-3.36
2023-01-21T06:43:22.170Z,-3.33
2023-01-21T06:46:10.559Z,-3.44
2023-01-21T06:49:00.483Z,-3.52
2023-01-21T06:51:48.959Z,-3.63
2023-01-21T06:54:36.895Z,-3.63
2023-01-21T06:57:25.230Z,-3.77
2023-01-21T07:00:14.341Z,-3.81
2023-01-21T07:03:02.400Z,-3.84
2023-01-21T07:05:51.724Z,-3.92
2023-01-21T07:08:39.671Z,-3.98
2023-01-21T07:11:27.693Z,-4.27
2023-01-21T07:14:15.622Z,-4.00
2023-01-21T07:17:03.575Z,-4.03
2023-01-21T07:19:51.509Z,-4.02
2023-01-21T07:22:40.802Z,-3.95
2023-01-21T07:25:28.734Z,-3.91
2023-01-21T07:28:17.056Z,-3.95
2023-01-21T07:31:05.309Z,-3.91
2023-01-21T07:33:53.439Z,-3.94
2023-01-21T07:36:41.730Z,-3.89
2023-01-21T07:39:31.020Z,-3.75
2023-01-21T07:42:18.914Z,-3.76
2023-01-21T07:45:07.839Z,-3.93
2023-01-21T07:47:55.948Z,-3.73
2023-01-21T07:50:43.954Z,-3.72
2023-01-21T07:53:31.941Z,-3.77
2023-01-21T07:56:21.213Z,-3.74
2023-01-21T07:59:10.721Z,-3.67
2023-01-21T08:01:58.912Z,-3.55
2023-01-21T08:04:46.910Z,-3.52
2023-01-21T08:07:34.870Z,-3.50
2023-01-21T08:10:23.102Z,-3.41
2023-01-21T08:13:12.340Z,-3.38
2023-01-21T08:16:00.294Z,-3.23
2023-01-21T08:18:48.206Z,-3.07
2023-01-21T08:21:36.180Z,-2.99
2023-01-21T08:24:24.128Z,-2.79
2023-01-21T08:27:12.064Z,-2.66
2023-01-21T08:30:01.355Z,-2.57
2023-01-21T08:32:49.782Z,-2.47
2023-01-21T08:35:37.735Z,-2.38
2023-01-21T08:38:25.724Z,-2.22
2023-01-21T08:41:13.622Z,-2.05
2023-01-21T08:44:01.819Z,-1.88
2023-01-21T08:46:51.279Z,-1.49
2023-01-21T08:49:39.182Z,-1.44
2023-01-21T08:52:27.220Z,-1.19
2023-01-21T08:55:15.550Z,-1.05
2023-01-21T08:58:03.596Z,-0.99
2023-01-21T09:00:51.903Z,-0.86
2023-01-21T09:03:41.242Z,-0.81
2023-01-21T09:06:30.929Z,-0.66
2023-01-21T09:09:18.853Z,-0.74
2023-01-21T09:12:08.045Z,-0.73
2023-01-21T09:14:55.983Z,-0.68
2023-01-21T09:17:43.879Z,-0.56
2023-01-21T09:20:33.253Z,-0.43
2023-01-21T09:23:28.000Z,-0.31
2023-01-21T09:26:18.583Z,-0.26
2023-01-21T09:29:06.557Z,0.00
2023-01-21T09:31:54.694Z,0.09
2023-01-21T09:34:42.623Z,0.14
2023-01-21T09:37:34.635Z,-0.15
2023-01-21T09:40:22.527Z,0.08
2023-01-21T09:43:14.560Z,-0.06
2023-01-21T09:46:06.168Z,-0.21
2023-01-21T09:48:56.806Z,-0.33
2023-01-21T09:51:52.741Z,-0.31
2023-01-21T09:54:42.301Z,-0.10
2023-01-21T09:58:07.687Z,-0.07
2023-01-21T10:01:03.986Z,0.23
2023-01-21T10:03:56.793Z,0.30
2023-01-21T10:06:52.289Z,0.49
2023-01-21T10:09:56.744Z,0.55
2023-01-21T10:13:04.000Z,0.41
2023-01-21T10:16:01.521Z,0.53
2023-01-21T10:18:53.519Z,0.68
2023-01-21T10:21:47.752Z,0.51
2023-01-21T10:24:39.073Z,0.44
2023-01-21T10:27:32.229Z,0.48
2023-01-21T10:30:24.009Z,0.73
2023-01-21T10:33:18.125Z,0.92
2023-01-21T10:36:25.420Z,0.54
2023-01-21T10:39:23.949Z,0.74
2023-01-21T10:42:29.539Z,0.80
2023-01-21T10:45:29.060Z,1.01
2023-01-21T10:48:24.051Z,1.01
2023-01-21T10:51:21.690Z,0.85
2023-01-21T10:54:22.262Z,0.75
2023-01-21T10:57:25.762Z,0.87
2023-01-21T11:00:22.814Z,0.83
2023-01-21T11:03:14.645Z,0.78
2023-01-21T11:06:06.828Z,1.14
2023-01-21T11:08:59.246Z,1.25
2023-01-21T11:11:47.155Z,0.83
2023-01-21T11:14:35.383Z,0.84
2023-01-21T11:17:34.133Z,0.97
2023-01-21T11:20:28.704Z,1.33
2023-01-21T11:23:28.087Z,1.45
2023-01-21T11:26:21.305Z,1.47
2023-01-21T11:29:13.806Z,1.54
2023-01-21T11:32:06.689Z,1.56
2023-01-21T11:35:05.558Z,1.13
2023-01-21T11:37:53.507Z,1.15
2023-01-21T11:40:41.825Z,1.29
2023-01-21T11:43:35.199Z,1.37
2023-01-21T11:46:28.313Z,1.16
2023-01-21T11:49:32.420Z,1.35
2023-01-21T11:52:22.102Z,1.53
2023-01-21T11:55:21.935Z,1.64
2023-01-21T11:58:19.713Z,2.20
2023-01-21T12:01:12.002Z,3.00
2023-01-21T12:04:01.955Z,2.24
2023-01-21T12:06:53.537Z,2.09
2023-01-21T12:09:50.248Z,1.25
2023-01-21T12:12:53.407Z,1.44
2023-01-21T12:15:56.540Z,1.27
2023-01-21T12:19:02.919Z,1.41
2023-01-21T12:22:04.920Z,1.36
2023-01-21T12:25:17.241Z,1.19
2023-01-21T12:28:30.697Z,0.78
2023-01-21T12:31:29.448Z,1.14
2023-01-21T12:34:28.323Z,1.33
2023-01-21T12:37:22.118Z,1.25
2023-01-21T12:40:19.438Z,1.05
2023-01-21T12:43:16.880Z,1.12
2023-01-21T12:46:10.666Z,1.15
2023-01-21T12:49:03.347Z,1.17
2023-01-21T12:51:56.518Z,0.94
2023-01-21T12:54:51.344Z,1.14
2023-01-21T12:57:47.666Z,1.31
2023-01-21T13:00:40.280Z,0.72
2023-01-21T13:03:34.254Z,1.15
2023-01-21T13:06:47.174Z,1.57
2023-01-21T13:09:45.133Z,1.54
2023-01-21T13:12:35.374Z,1.79
2023-01-21T13:15:30.094Z,1.75
2023-01-21T13:18:24.102Z,1.49
2023-01-21T13:21:22.233Z,1.42
2023-01-21T13:24:17.523Z,1.37
2023-01-21T13:27:14.116Z,1.45
2023-01-21T13:30:10.899Z,1.23
2023-01-21T13:33:12.674Z,1.25
2023-01-21T13:36:17.043Z,1.41
2023-01-21T13:39:10.059Z,1.38
2023-01-21T13:42:14.544Z,1.44
2023-01-21T13:45:24.785Z,1.15
2023-01-21T13:48:50.376Z,1.17
2023-01-21T13:51:50.930Z,1.10
2023-01-21T13:54:52.841Z,0.98
2023-01-21T13:57:53.465Z,1.00
2023-01-21T14:00:45.694Z,1.14
2023-01-21T14:03:42.207Z,1.23
2023-01-21T14:06:35.884Z,1.19
2023-01-21T14:09:30.279Z,0.66
2023-01-21T14:12:23.256Z,1.01
2023-01-21T14:15:25.007Z,1.26
2023-01-21T14:18:30.128Z,1.14
2023-01-21T14:21:40.697Z,1.00
2023-01-21T14:24:45.585Z,1.14
2023-01-21T14:27:46.129Z,1.17
2023-01-21T14:30:43.012Z,0.84
2023-01-21T14:33:39.876Z,1.07
2023-01-21T14:36:39.492Z,1.10
2023-01-21T14:39:38.873Z,0.93
2023-01-21T14:42:41.554Z,0.97
2023-01-21T14:45:54.410Z,1.04
2023-01-21T14:48:42.801Z,1.06
2023-01-21T14:51:33.035Z,1.06
2023-01-21T14:54:26.205Z,0.92
2023-01-21T14:57:25.504Z,0.90
2023-01-21T15:00:23.178Z,0.87
2023-01-21T15:03:16.850Z,0.87
2023-01-21T15:06:09.720Z,0.71
2023-01-21T15:09:01.276Z,0.74
2023-01-21T15:11:53.069Z,0.71
2023-01-21T15:14:42.699Z,0.48
2023-01-21T15:18:03.194Z,0.41
2023-01-21T15:20:52.455Z,0.55
2023-01-21T15:23:40.730Z,0.52
2023-01-21T15:26:33.683Z,0.46
2023-01-21T15:29:34.700Z,0.38
2023-01-21T15:32:29.264Z,0.38
2023-01-21T15:35:24.698Z,0.26
2023-01-21T15:38:15.653Z,0.30
2023-01-21T15:41:10.498Z,0.38
2023-01-21T15:44:08.292Z,0.37
2023-01-21T15:47:03.292Z,0.28
2023-01-21T15:50:03.170Z,0.29
2023-01-21T15:53:06.983Z,0.28
2023-01-21T15:56:13.471Z,0.29
2023-01-21T15:59:15.524Z,0.33
2023-01-21T16:02:18.044Z,-0.02
2023-01-21T16:05:20.294Z,0.15
2023-01-21T16:08:19.760Z,0.21
2023-01-21T16:11:21.020Z,0.06
2023-01-21T16:14:21.367Z,-0.06
2023-01-21T16:17:18.733Z,-0.26
2023-01-21T16:20:11.157Z,-0.21
2023-01-21T16:23:01.511Z,-0.41
2023-01-21T16:25:51.475Z,-0.51
2023-01-21T16:28:44.247Z,-0.44
2023-01-21T16:31:46.360Z,-0.56
2023-01-21T16:34:41.674Z,-0.53
2023-01-21T16:37:31.310Z,-0.50
2023-01-21T16:40:30.284Z,-0.59
2023-01-21T16:43:25.776Z,-0.49
2023-01-21T16:46:17.294Z,-0.47
2023-01-21T16:49:13.671Z,-0.51
2023-01-21T16:52:03.910Z,-0.52
2023-01-21T16:54:53.198Z,-0.60
2023-01-21T16:57:48.987Z,-0.58
2023-01-21T17:00:37.069Z,-0.58
2023-01-21T17:03:25.193Z,-0.51
2023-01-21T17:06:21.010Z,-0.47
2023-01-21T17:09:20.716Z,-0.63
2023-01-21T17:12:12.119Z,-0.52
2023-01-21T17:15:03.611Z,-0.55
2023-01-21T17:17:56.262Z,-0.55
2023-01-21T17:20:45.954Z,-0.55
2023-01-21T17:23:37.577Z,-0.62
2023-01-21T17:26:29.405Z,-0.71
2023-01-21T17:29:20.695Z,-0.73
2023-01-21T17:32:25.643Z,-0.62
2023-01-21T17:35:15.827Z,-0.73
2023-01-21T17:38:06.234Z,-0.60
2023-01-21T17:41:03.443Z,-0.61
2023-01-21T17:43:53.254Z,-0.64
2023-01-21T17:46:45.687Z,-0.63
2023-01-21T17:49:33.628Z,-0.63
2023-01-21T17:52:22.340Z,-0.67
2023-01-21T17:55:25.535Z,-0.71
2023-01-21T17:58:45.952Z,-0.71
2023-01-21T18:01:35.415Z,-0.66
2023-01-21T18:04:23.504Z,-0.56
2023-01-21T18:07:22.240Z,-0.71
2023-01-21T18:10:15.911Z,-0.66
2023-01-21T18:13:04.087Z,-0.80
2023-01-21T18:15:54.032Z,-0.73
2023-01-21T18:18:43.457Z,-0.65
2023-01-21T18:21:31.472Z,-0.65
2023-01-21T18:24:19.532Z,-0.58
2023-01-21T18:27:10.363Z,-0.61
2023-01-21T18:29:59.218Z,-0.56
2023-01-21T18:32:49.631Z,-0.53
2023-01-21T18:35:40.979Z,-0.59
2023-01-21T18:38:30.551Z,-0.63
2023-01-21T18:41:19.563Z,-0.66
2023-01-21T18:44:07.549Z,-0.71
2023-01-21T18:46:56.564Z,-0.72
2023-01-21T18:49:44.893Z,-0.88
2023-01-21T18:52:34.237Z,-0.75
2023-01-21T18:55:26.929Z,-0.69
2023-01-21T18:58:15.080Z,-0.61
2023-01-21T19:01:13.815Z,-0.56
2023-01-21T19:04:09.845Z,-0.62
2023-01-21T19:06:58.231Z,-0.51
2023-01-21T19:09:50.505Z,-0.49
2023-01-21T19:12:38.491Z,-0.50
2023-01-21T19:15:28.870Z,-0.49
2023-01-21T19:18:17.817Z,-0.52
2023-01-21T19:21:08.108Z,-0.47
2023-01-21T19:23:56.325Z,-0.45
2023-01-21T19:26:45.573Z,-0.43
2023-01-21T19:29:33.494Z,-0.41
2023-01-21T19:32:21.548Z,-0.38
2023-01-21T19:35:09.951Z,-0.30
2023-01-21T19:37:58.812Z,-0.34
2023-01-21T19:40:47.525Z,-0.23
2023-01-21T19:43:36.817Z,-0.28
2023-01-21T19:46:28.720Z,-0.26
2023-01-21T19:49:17.967Z,-0.25
2023-01-21T19:52:06.520Z,-0.28
2023-01-21T19:54:55.256Z,-0.22
2023-01-21T19:57:44.237Z,-0.22
2023-01-21T20:00:36.106Z,-0.19
2023-01-21T20:03:25.606Z,-0.23
2023-01-21T20:06:13.635Z,-0.19
2023-01-21T20:09:01.646Z,-0.18
2023-01-21T20:11:49.564Z,-0.19
2023-01-21T20:14:37.547Z,-0.13
2023-01-21T20:17:26.933Z,-0.18
2023-01-21T20:20:17.030Z,-0.27
2023-01-21T20:23:05.039Z,-0.21
2023-01-21T20:25:56.317Z,-0.18
2023-01-21T20:28:50.159Z,-0.19
2023-01-21T20:31:38.106Z,-0.15
2023-01-21T20:34:30.864Z,-0.10
2023-01-21T20:37:18.813Z,-0.08
2023-01-21T20:40:07.423Z,-0.08
2023-01-21T20:42:57.007Z,-0.11
2023-01-21T20:45:47.470Z,-0.13
2023-01-21T20:48:37.666Z,-0.12
2023-01-21T20:51:27.043Z,-0.04
2023-01-21T20:54:15.015Z,-0.06
2023-01-21T20:57:03.728Z,0.03
2023-01-21T20:59:51.649Z,0.10
2023-01-21T21:02:39.605Z,0.04
2023-01-21T21:05:28.857Z,0.13
2023-01-21T21:08:20.144Z,0.20
2023-01-21T21:11:08.347Z,0.28
2023-01-21T21:13:56.460Z,0.20
2023-01-21T21:16:44.548Z,0.10
2023-01-21T21:19:32.465Z,0.10
2023-01-21T21:22:20.395Z,0.17
2023-01-21T21:25:14.415Z,0.09
2023-01-21T21:28:02.347Z,0.26
2023-01-21T21:30:50.272Z,0.11
2023-01-21T21:33:38.252Z,0.23
2023-01-21T21:36:26.249Z,0.28
2023-01-21T21:39:19.086Z,0.26
2023-01-21T21:42:28.088Z,0.28
2023-01-21T21:45:16.440Z,0.35
2023-01-21T21:48:25.337Z,-0.09
2023-01-21T21:51:17.376Z,0.27
2023-01-21T21:54:07.666Z,0.18
2023-01-21T21:56:56.083Z,0.18
2023-01-21T21:59:46.573Z,0.24
2023-01-21T22:02:34.607Z,-0.29
2023-01-21T22:05:22.647Z,0.32
2023-01-21T22:08:15.675Z,0.29
2023-01-21T22:11:05.009Z,0.24
2023-01-21T22:13:54.253Z,0.31
2023-01-21T22:16:44.169Z,0.28
2023-01-21T22:19:32.084Z,0.36
2023-01-21T22:22:19.984Z,0.35
2023-01-21T22:25:09.331Z,0.35
2023-01-21T22:27:57.276Z,0.30
2023-01-21T22:30:45.291Z,0.31
2023-01-21T22:33:35.495Z,0.42
2023-01-21T22:36:25.003Z,0.36
2023-01-21T22:39:12.971Z,0.45
2023-01-21T22:42:03.030Z,0.42
2023-01-21T22:44:50.989Z,0.42
2023-01-21T22:47:38.944Z,0.24
2023-01-21T22:50:28.394Z,0.33
2023-01-21T22:53:16.329Z,0.27
2023-01-21T22:56:06.034Z,0.33
2023-01-21T22:58:54.026Z,0.28
2023-01-21T23:01:42.733Z,0.38
2023-01-21T23:04:30.695Z,0.28
2023-01-21T23:07:19.963Z,0.35
2023-01-21T23:10:08.443Z,0.31
2023-01-21T23:12:56.463Z,0.27
2023-01-21T23:15:45.058Z,0.25
2023-01-21T23:18:33.861Z,0.31
2023-01-21T23:21:23.179Z,0.30
2023-01-21T23:24:12.453Z,0.34
2023-01-21T23:27:00.385Z,0.25
2023-01-21T23:29:48.379Z,0.27
2023-01-21T23:32:36.357Z,0.32
2023-01-21T23:35:24.301Z,0.32
2023-01-21T23:38:12.243Z,0.33
2023-01-21T23:41:06.814Z,0.26
2023-01-21T23:43:54.703Z,0.36
2023-01-21T23:46:43.509Z,0.30
2023-01-21T23:49:31.463Z,0.38
2023-01-21T23:52:19.432Z,0.38
2023-01-21T23:55:09.686Z,0.37
2023-01-21T23:57:58.962Z,0.38
